CheckWX is a tool to help pilots better visualize weather data.  It is not intended as a substitute for an official pre-flight weather briefing.

09:03:19 UTC

KHND METAR
Henderson Executive Airport
Las Vegas, Nevada, USA
Current

7 mins ago

KHND 140856Z AUTO 18007KT 10SM CLR 10/M07 A3007 RMK AO2 SLP190 T01001067 53008
Observed
Nov-14 @ 08:56 UTC
Wind
  • 180° at 7 KTS
Visibility
10 SM
Flight Rules
VFR
Cloud Levels
  • Clear skies
Temperature
10°C / 50°F
Dewpoint
-7°C / 19°F
Humidity
30%
Altimeter
30.07" Hg
Pressure
1018.32 hPa
Previous

1 hour ago

KHND 140756Z AUTO 17005KT 10SM CLR 11/M06 A3006 RMK AO2 SLP186 T01061056 402280078
Observed
Nov-14 @ 07:56 UTC
Wind
  • 170° at 5 KTS
Visibility
10 SM
Flight Rules
VFR
Cloud Levels
  • Clear skies
Temperature
11°C / 52°F
Dewpoint
-6°C / 21°F
Humidity
30%
Altimeter
30.06" Hg
Pressure
1017.92 hPa
Previous

2 hours ago

KHND 140656Z AUTO 17005KT 10SM CLR 11/M04 A3005 RMK AO2 SLP184 T01111044
Observed
Nov-14 @ 06:56 UTC
Wind
  • 170° at 5 KTS
Visibility
10 SM
Flight Rules
VFR
Cloud Levels
  • Clear skies
Temperature
11°C / 52°F
Dewpoint
-4°C / 25°F
Humidity
35%
Altimeter
30.05" Hg
Pressure
1017.62 hPa